sensor_id;sensor_type;location;lat;lon;timestamp;P1;durP1;ratioP1;P2;durP2;ratioP2
77876;SDS011;67251;50.844;7.978;2024-03-17T00:00:21;10.43;;;4.15;;
77876;SDS011;67251;50.844;7.978;2024-03-17T00:02:47;9.63;;;4.20;;
77876;SDS011;67251;50.844;7.978;2024-03-17T00:05:13;11.30;;;4.20;;
77876;SDS011;67251;50.844;7.978;2024-03-17T00:07:39;14.13;;;4.45;;
77876;SDS011;67251;50.844;7.978;2024-03-17T00:10:05;8.52;;;3.65;;
77876;SDS011;67251;50.844;7.978;2024-03-17T00:12:35;12.45;;;4.07;;
77876;SDS011;67251;50.844;7.978;2024-03-17T00:15:00;9.73;;;4.43;;
77876;SDS011;67251;50.844;7.978;2024-03-17T00:17:26;7.25;;;3.17;;
77876;SDS011;67251;50.844;7.978;2024-03-17T00:19:51;8.85;;;3.50;;
77876;SDS011;67251;50.844;7.978;2024-03-17T00:22:16;7.90;;;3.25;;
77876;SDS011;67251;50.844;7.978;2024-03-17T00:24:45;8.85;;;3.25;;
77876;SDS011;67251;50.844;7.978;2024-03-17T00:27:11;10.30;;;3.83;;
77876;SDS011;67251;50.844;7.978;2024-03-17T00:29:37;9.68;;;3.30;;
77876;SDS011;67251;50.844;7.978;2024-03-17T00:32:02;8.27;;;3.20;;
77876;SDS011;67251;50.844;7.978;2024-03-17T00:34:28;7.57;;;3.45;;
77876;SDS011;67251;50.844;7.978;2024-03-17T00:36:53;8.15;;;3.10;;
77876;SDS011;67251;50.844;7.978;2024-03-17T00:39:19;7.97;;;3.30;;
77876;SDS011;67251;50.844;7.978;2024-03-17T00:41:44;7.90;;;3.35;;
77876;SDS011;67251;50.844;7.978;2024-03-17T00:44:09;7.97;;;3.50;;
77876;SDS011;67251;50.844;7.978;2024-03-17T00:46:35;7.75;;;3.20;;
77876;SDS011;67251;50.844;7.978;2024-03-17T00:49:01;12.32;;;3.55;;
77876;SDS011;67251;50.844;7.978;2024-03-17T00:51:26;6.97;;;2.70;;
77876;SDS011;67251;50.844;7.978;2024-03-17T00:53:52;8.82;;;3.00;;
77876;SDS011;67251;50.844;7.978;2024-03-17T00:56:17;8.18;;;3.03;;
77876;SDS011;67251;50.844;7.978;2024-03-17T00:58:42;7.53;;;3.40;;
77876;SDS011;67251;50.844;7.978;2024-03-17T01:01:09;8.48;;;3.30;;
77876;SDS011;67251;50.844;7.978;2024-03-17T01:03:35;7.63;;;3.10;;
77876;SDS011;67251;50.844;7.978;2024-03-17T01:06:03;7.07;;;3.15;;
77876;SDS011;67251;50.844;7.978;2024-03-17T01:08:29;9.25;;;3.60;;
77876;SDS011;67251;50.844;7.978;2024-03-17T01:10:55;8.00;;;3.05;;
77876;SDS011;67251;50.844;7.978;2024-03-17T01:13:20;8.80;;;3.75;;
77876;SDS011;67251;50.844;7.978;2024-03-17T01:15:45;11.38;;;3.78;;
77876;SDS011;67251;50.844;7.978;2024-03-17T01:18:16;12.05;;;4.60;;
77876;SDS011;67251;50.844;7.978;2024-03-17T01:20:41;8.52;;;3.70;;
77876;SDS011;67251;50.844;7.978;2024-03-17T01:23:07;12.20;;;4.18;;
77876;SDS011;67251;50.844;7.978;2024-03-17T01:25:33;12.43;;;3.83;;
77876;SDS011;67251;50.844;7.978;2024-03-17T01:28:01;8.32;;;3.38;;
77876;SDS011;67251;50.844;7.978;2024-03-17T01:30:26;7.20;;;2.92;;
77876;SDS011;67251;50.844;7.978;2024-03-17T01:32:52;6.95;;;3.28;;
77876;SDS011;67251;50.844;7.978;2024-03-17T01:35:17;6.82;;;2.90;;
77876;SDS011;67251;50.844;7.978;2024-03-17T01:37:43;8.73;;;3.40;;
77876;SDS011;67251;50.844;7.978;2024-03-17T01:43:43;11.18;;;3.05;;
77876;SDS011;67251;50.844;7.978;2024-03-17T01:46:10;9.68;;;3.25;;
77876;SDS011;67251;50.844;7.978;2024-03-17T01:51:04;6.55;;;2.88;;
77876;SDS011;67251;50.844;7.978;2024-03-17T01:53:29;8.57;;;3.10;;
77876;SDS011;67251;50.844;7.978;2024-03-17T01:55:56;7.25;;;2.63;;
77876;SDS011;67251;50.844;7.978;2024-03-17T01:58:27;7.20;;;2.83;;
77876;SDS011;67251;50.844;7.978;2024-03-17T02:00:54;8.98;;;3.10;;
77876;SDS011;67251;50.844;7.978;2024-03-17T02:03:21;7.78;;;3.40;;
77876;SDS011;67251;50.844;7.978;2024-03-17T02:05:46;6.63;;;2.83;;
77876;SDS011;67251;50.844;7.978;2024-03-17T02:08:12;6.95;;;3.10;;
77876;SDS011;67251;50.844;7.978;2024-03-17T02:10:38;7.68;;;3.15;;
77876;SDS011;67251;50.844;7.978;2024-03-17T02:13:03;8.55;;;3.45;;
77876;SDS011;67251;50.844;7.978;2024-03-17T02:15:29;7.80;;;3.33;;
77876;SDS011;67251;50.844;7.978;2024-03-17T02:17:55;10.35;;;3.17;;
77876;SDS011;67251;50.844;7.978;2024-03-17T02:20:21;7.50;;;3.15;;
77876;SDS011;67251;50.844;7.978;2024-03-17T02:23:06;8.30;;;3.65;;
77876;SDS011;67251;50.844;7.978;2024-03-17T02:25:32;7.90;;;2.88;;
77876;SDS011;67251;50.844;7.978;2024-03-17T02:27:57;8.38;;;3.38;;
77876;SDS011;67251;50.844;7.978;2024-03-17T02:30:22;7.72;;;3.60;;
77876;SDS011;67251;50.844;7.978;2024-03-17T02:32:51;7.72;;;3.30;;
77876;SDS011;67251;50.844;7.978;2024-03-17T02:35:17;7.22;;;3.63;;
77876;SDS011;67251;50.844;7.978;2024-03-17T02:37:43;9.15;;;3.85;;
77876;SDS011;67251;50.844;7.978;2024-03-17T02:40:08;10.45;;;3.90;;
77876;SDS011;67251;50.844;7.978;2024-03-17T02:42:35;30.52;;;10.00;;
77876;SDS011;67251;50.844;7.978;2024-03-17T02:45:03;15.25;;;6.50;;
77876;SDS011;67251;50.844;7.978;2024-03-17T02:47:29;10.50;;;4.25;;
77876;SDS011;67251;50.844;7.978;2024-03-17T02:49:55;9.20;;;3.75;;
77876;SDS011;67251;50.844;7.978;2024-03-17T02:52:20;8.40;;;3.20;;
77876;SDS011;67251;50.844;7.978;2024-03-17T02:54:45;8.48;;;3.20;;
77876;SDS011;67251;50.844;7.978;2024-03-17T02:57:11;7.95;;;2.72;;
77876;SDS011;67251;50.844;7.978;2024-03-17T02:59:36;8.93;;;3.53;;
77876;SDS011;67251;50.844;7.978;2024-03-17T03:02:01;7.43;;;3.50;;
77876;SDS011;67251;50.844;7.978;2024-03-17T03:04:27;8.23;;;2.92;;
77876;SDS011;67251;50.844;7.978;2024-03-17T03:06:53;8.32;;;3.05;;
77876;SDS011;67251;50.844;7.978;2024-03-17T03:09:18;7.78;;;3.03;;
77876;SDS011;67251;50.844;7.978;2024-03-17T03:11:56;7.13;;;2.17;;
77876;SDS011;67251;50.844;7.978;2024-03-17T03:14:21;6.80;;;2.50;;
77876;SDS011;67251;50.844;7.978;2024-03-17T03:16:46;11.40;;;3.38;;
77876;SDS011;67251;50.844;7.978;2024-03-17T03:19:12;7.60;;;3.47;;
77876;SDS011;67251;50.844;7.978;2024-03-17T03:21:37;8.80;;;3.47;;
77876;SDS011;67251;50.844;7.978;2024-03-17T03:24:02;7.97;;;3.03;;
77876;SDS011;67251;50.844;7.978;2024-03-17T03:26:28;8.05;;;3.30;;
77876;SDS011;67251;50.844;7.978;2024-03-17T03:28:53;7.50;;;3.33;;
77876;SDS011;67251;50.844;7.978;2024-03-17T03:31:20;7.75;;;3.13;;
77876;SDS011;67251;50.844;7.978;2024-03-17T03:33:45;10.30;;;3.38;;
77876;SDS011;67251;50.844;7.978;2024-03-17T03:36:11;6.65;;;2.85;;
77876;SDS011;67251;50.844;7.978;2024-03-17T03:38:37;7.72;;;3.33;;
77876;SDS011;67251;50.844;7.978;2024-03-17T03:41:10;8.80;;;3.38;;
77876;SDS011;67251;50.844;7.978;2024-03-17T03:43:38;8.55;;;3.20;;
77876;SDS011;67251;50.844;7.978;2024-03-17T03:46:03;13.43;;;3.15;;
77876;SDS011;67251;50.844;7.978;2024-03-17T03:48:29;10.20;;;3.53;;
77876;SDS011;67251;50.844;7.978;2024-03-17T03:50:55;6.97;;;2.70;;
77876;SDS011;67251;50.844;7.978;2024-03-17T03:53:20;7.57;;;3.60;;
77876;SDS011;67251;50.844;7.978;2024-03-17T03:55:46;8.50;;;2.70;;
77876;SDS011;67251;50.844;7.978;2024-03-17T03:58:12;10.00;;;3.65;;
77876;SDS011;67251;50.844;7.978;2024-03-17T04:00:40;8.93;;;3.75;;
77876;SDS011;67251;50.844;7.978;2024-03-17T04:03:05;10.00;;;3.70;;
77876;SDS011;67251;50.844;7.978;2024-03-17T04:05:31;10.20;;;3.40;;
77876;SDS011;67251;50.844;7.978;2024-03-17T04:07:57;5.43;;;2.45;;
77876;SDS011;67251;50.844;7.978;2024-03-17T04:10:23;11.20;;;3.75;;
77876;SDS011;67251;50.844;7.978;2024-03-17T04:12:49;10.38;;;3.35;;
77876;SDS011;67251;50.844;7.978;2024-03-17T04:15:15;8.68;;;3.45;;
77876;SDS011;67251;50.844;7.978;2024-03-17T04:17:40;10.20;;;3.95;;
77876;SDS011;67251;50.844;7.978;2024-03-17T04:20:07;9.98;;;3.60;;
77876;SDS011;67251;50.844;7.978;2024-03-17T04:22:35;9.38;;;3.70;;
77876;SDS011;67251;50.844;7.978;2024-03-17T04:25:01;9.10;;;3.60;;
77876;SDS011;67251;50.844;7.978;2024-03-17T04:27:28;9.52;;;3.38;;
77876;SDS011;67251;50.844;7.978;2024-03-17T04:29:55;8.63;;;3.42;;
77876;SDS011;67251;50.844;7.978;2024-03-17T04:32:22;7.50;;;3.15;;
77876;SDS011;67251;50.844;7.978;2024-03-17T04:34:48;11.10;;;3.55;;
77876;SDS011;67251;50.844;7.978;2024-03-17T04:37:13;5.80;;;2.53;;
77876;SDS011;67251;50.844;7.978;2024-03-17T04:39:39;8.50;;;3.08;;
77876;SDS011;67251;50.844;7.978;2024-03-17T04:42:09;8.05;;;2.58;;
77876;SDS011;67251;50.844;7.978;2024-03-17T04:44:35;8.10;;;3.15;;
77876;SDS011;67251;50.844;7.978;2024-03-17T04:47:01;7.03;;;2.90;;
77876;SDS011;67251;50.844;7.978;2024-03-17T04:49:31;8.05;;;2.97;;
77876;SDS011;67251;50.844;7.978;2024-03-17T04:51:57;7.07;;;3.15;;
77876;SDS011;67251;50.844;7.978;2024-03-17T04:54:22;7.63;;;3.30;;
77876;SDS011;67251;50.844;7.978;2024-03-17T04:56:47;8.75;;;3.50;;
77876;SDS011;67251;50.844;7.978;2024-03-17T04:59:13;9.35;;;3.83;;
77876;SDS011;67251;50.844;7.978;2024-03-17T05:01:39;9.38;;;3.20;;
77876;SDS011;67251;50.844;7.978;2024-03-17T05:04:04;8.30;;;3.20;;
77876;SDS011;67251;50.844;7.978;2024-03-17T05:06:30;10.60;;;3.90;;
77876;SDS011;67251;50.844;7.978;2024-03-17T05:08:56;8.23;;;3.45;;
77876;SDS011;67251;50.844;7.978;2024-03-17T05:11:21;6.70;;;3.08;;
77876;SDS011;67251;50.844;7.978;2024-03-17T05:13:48;10.18;;;3.40;;
77876;SDS011;67251;50.844;7.978;2024-03-17T05:16:14;10.57;;;3.33;;
77876;SDS011;67251;50.844;7.978;2024-03-17T05:18:40;11.07;;;3.25;;
77876;SDS011;67251;50.844;7.978;2024-03-17T05:21:06;8.70;;;3.22;;
77876;SDS011;67251;50.844;7.978;2024-03-17T05:23:33;12.85;;;4.25;;
77876;SDS011;67251;50.844;7.978;2024-03-17T05:26:00;7.68;;;3.50;;
77876;SDS011;67251;50.844;7.978;2024-03-17T05:28:26;6.75;;;3.05;;
77876;SDS011;67251;50.844;7.978;2024-03-17T05:30:53;7.20;;;3.40;;
77876;SDS011;67251;50.844;7.978;2024-03-17T05:33:20;7.18;;;2.97;;
77876;SDS011;67251;50.844;7.978;2024-03-17T05:38:28;8.00;;;3.08;;
77876;SDS011;67251;50.844;7.978;2024-03-17T05:40:59;8.65;;;2.83;;
77876;SDS011;67251;50.844;7.978;2024-03-17T05:43:26;8.82;;;3.30;;
77876;SDS011;67251;50.844;7.978;2024-03-17T05:46:00;6.85;;;3.40;;
77876;SDS011;67251;50.844;7.978;2024-03-17T05:50:51;8.40;;;3.17;;
77876;SDS011;67251;50.844;7.978;2024-03-17T05:53:17;13.27;;;4.72;;
77876;SDS011;67251;50.844;7.978;2024-03-17T05:55:45;8.10;;;3.20;;
77876;SDS011;67251;50.844;7.978;2024-03-17T05:58:11;6.45;;;2.95;;
77876;SDS011;67251;50.844;7.978;2024-03-17T06:00:36;7.63;;;3.05;;
77876;SDS011;67251;50.844;7.978;2024-03-17T06:03:03;7.38;;;3.00;;
77876;SDS011;67251;50.844;7.978;2024-03-17T06:05:36;9.05;;;3.60;;
77876;SDS011;67251;50.844;7.978;2024-03-17T06:08:04;8.23;;;3.40;;
77876;SDS011;67251;50.844;7.978;2024-03-17T06:10:32;10.60;;;3.63;;
77876;SDS011;67251;50.844;7.978;2024-03-17T06:12:59;10.88;;;3.80;;
77876;SDS011;67251;50.844;7.978;2024-03-17T06:15:25;10.27;;;3.67;;
77876;SDS011;67251;50.844;7.978;2024-03-17T06:17:51;10.52;;;3.63;;
77876;SDS011;67251;50.844;7.978;2024-03-17T06:20:18;10.18;;;3.30;;
77876;SDS011;67251;50.844;7.978;2024-03-17T06:22:48;7.72;;;3.35;;
77876;SDS011;67251;50.844;7.978;2024-03-17T06:25:14;10.65;;;3.88;;
77876;SDS011;67251;50.844;7.978;2024-03-17T06:27:39;10.63;;;3.40;;
77876;SDS011;67251;50.844;7.978;2024-03-17T06:30:04;11.40;;;3.53;;
77876;SDS011;67251;50.844;7.978;2024-03-17T06:32:31;9.15;;;3.28;;
77876;SDS011;67251;50.844;7.978;2024-03-17T06:35:01;9.07;;;3.20;;
77876;SDS011;67251;50.844;7.978;2024-03-17T06:37:27;9.27;;;3.42;;
77876;SDS011;67251;50.844;7.978;2024-03-17T06:39:52;12.85;;;6.18;;
77876;SDS011;67251;50.844;7.978;2024-03-17T06:42:18;11.95;;;4.97;;
77876;SDS011;67251;50.844;7.978;2024-03-17T06:44:44;11.50;;;4.20;;
77876;SDS011;67251;50.844;7.978;2024-03-17T06:47:09;9.20;;;3.80;;
77876;SDS011;67251;50.844;7.978;2024-03-17T06:49:35;8.80;;;3.50;;
77876;SDS011;67251;50.844;7.978;2024-03-17T06:52:00;8.18;;;3.63;;
77876;SDS011;67251;50.844;7.978;2024-03-17T06:54:26;12.93;;;4.50;;
77876;SDS011;67251;50.844;7.978;2024-03-17T06:56:51;11.15;;;3.97;;
77876;SDS011;67251;50.844;7.978;2024-03-17T06:59:17;9.15;;;3.90;;
77876;SDS011;67251;50.844;7.978;2024-03-17T07:01:42;8.52;;;3.97;;
77876;SDS011;67251;50.844;7.978;2024-03-17T07:04:09;9.77;;;4.05;;
77876;SDS011;67251;50.844;7.978;2024-03-17T07:06:35;4.78;;;2.03;;
77876;SDS011;67251;50.844;7.978;2024-03-17T07:09:01;8.88;;;3.72;;
77876;SDS011;67251;50.844;7.978;2024-03-17T07:11:26;12.02;;;4.00;;
77876;SDS011;67251;50.844;7.978;2024-03-17T07:13:52;7.78;;;3.13;;
77876;SDS011;67251;50.844;7.978;2024-03-17T07:16:17;6.55;;;2.63;;
77876;SDS011;67251;50.844;7.978;2024-03-17T07:18:43;9.43;;;3.70;;
77876;SDS011;67251;50.844;7.978;2024-03-17T07:21:09;6.93;;;3.25;;
77876;SDS011;67251;50.844;7.978;2024-03-17T07:23:35;7.40;;;3.53;;
77876;SDS011;67251;50.844;7.978;2024-03-17T07:26:01;9.90;;;4.50;;
77876;SDS011;67251;50.844;7.978;2024-03-17T07:28:29;10.85;;;3.38;;
77876;SDS011;67251;50.844;7.978;2024-03-17T07:30:57;7.47;;;3.13;;
77876;SDS011;67251;50.844;7.978;2024-03-17T07:33:24;9.15;;;3.83;;
77876;SDS011;67251;50.844;7.978;2024-03-17T07:35:50;7.35;;;3.40;;
77876;SDS011;67251;50.844;7.978;2024-03-17T07:38:16;9.25;;;4.05;;
77876;SDS011;67251;50.844;7.978;2024-03-17T07:40:43;7.82;;;3.63;;
77876;SDS011;67251;50.844;7.978;2024-03-17T07:43:09;7.60;;;3.58;;
77876;SDS011;67251;50.844;7.978;2024-03-17T07:45:35;6.80;;;3.40;;
77876;SDS011;67251;50.844;7.978;2024-03-17T07:48:00;7.43;;;3.85;;
77876;SDS011;67251;50.844;7.978;2024-03-17T07:50:25;7.90;;;3.90;;
77876;SDS011;67251;50.844;7.978;2024-03-17T07:52:51;8.38;;;4.07;;
77876;SDS011;67251;50.844;7.978;2024-03-17T07:55:16;7.40;;;3.80;;
77876;SDS011;67251;50.844;7.978;2024-03-17T07:57:42;7.25;;;3.40;;
77876;SDS011;67251;50.844;7.978;2024-03-17T08:00:07;8.30;;;3.90;;
77876;SDS011;67251;50.844;7.978;2024-03-17T08:02:47;7.85;;;4.18;;
77876;SDS011;67251;50.844;7.978;2024-03-17T08:05:12;9.00;;;4.20;;
77876;SDS011;67251;50.844;7.978;2024-03-17T08:07:38;8.65;;;4.30;;
77876;SDS011;67251;50.844;7.978;2024-03-17T08:10:04;7.43;;;4.10;;
77876;SDS011;67251;50.844;7.978;2024-03-17T08:12:30;8.00;;;4.15;;
77876;SDS011;67251;50.844;7.978;2024-03-17T08:14:55;9.48;;;4.20;;
77876;SDS011;67251;50.844;7.978;2024-03-17T08:17:20;8.55;;;4.10;;
77876;SDS011;67251;50.844;7.978;2024-03-17T08:19:46;8.65;;;4.45;;
77876;SDS011;67251;50.844;7.978;2024-03-17T08:22:12;7.50;;;3.90;;
77876;SDS011;67251;50.844;7.978;2024-03-17T08:24:38;8.23;;;3.72;;
77876;SDS011;67251;50.844;7.978;2024-03-17T08:27:03;8.27;;;4.18;;
77876;SDS011;67251;50.844;7.978;2024-03-17T08:29:29;7.90;;;3.60;;
77876;SDS011;67251;50.844;7.978;2024-03-17T08:31:54;7.75;;;4.32;;
77876;SDS011;67251;50.844;7.978;2024-03-17T08:34:20;8.52;;;3.90;;
77876;SDS011;67251;50.844;7.978;2024-03-17T08:36:45;8.13;;;4.80;;
77876;SDS011;67251;50.844;7.978;2024-03-17T08:39:11;9.30;;;4.38;;
77876;SDS011;67251;50.844;7.978;2024-03-17T08:41:36;7.72;;;4.35;;
77876;SDS011;67251;50.844;7.978;2024-03-17T08:44:02;7.10;;;3.53;;
77876;SDS011;67251;50.844;7.978;2024-03-17T08:46:27;9.18;;;4.20;;
77876;SDS011;67251;50.844;7.978;2024-03-17T08:48:53;8.32;;;4.32;;
77876;SDS011;67251;50.844;7.978;2024-03-17T08:51:18;7.97;;;4.00;;
77876;SDS011;67251;50.844;7.978;2024-03-17T08:53:44;7.10;;;4.18;;
77876;SDS011;67251;50.844;7.978;2024-03-17T08:56:09;6.95;;;3.85;;
77876;SDS011;67251;50.844;7.978;2024-03-17T08:58:35;8.65;;;3.88;;
77876;SDS011;67251;50.844;7.978;2024-03-17T09:01:06;7.28;;;3.92;;
77876;SDS011;67251;50.844;7.978;2024-03-17T09:03:33;8.82;;;3.92;;
77876;SDS011;67251;50.844;7.978;2024-03-17T09:05:59;7.85;;;3.95;;
77876;SDS011;67251;50.844;7.978;2024-03-17T09:08:24;7.47;;;3.42;;
77876;SDS011;67251;50.844;7.978;2024-03-17T09:10:51;6.47;;;3.40;;
77876;SDS011;67251;50.844;7.978;2024-03-17T09:13:18;8.50;;;3.42;;
77876;SDS011;67251;50.844;7.978;2024-03-17T09:15:51;7.20;;;2.90;;
77876;SDS011;67251;50.844;7.978;2024-03-17T09:18:26;6.03;;;2.70;;
77876;SDS011;67251;50.844;7.978;2024-03-17T09:20:57;8.13;;;3.10;;
77876;SDS011;67251;50.844;7.978;2024-03-17T09:23:33;7.07;;;2.70;;
77876;SDS011;67251;50.844;7.978;2024-03-17T09:28:26;5.90;;;2.22;;
77876;SDS011;67251;50.844;7.978;2024-03-17T09:30:52;7.47;;;2.42;;
77876;SDS011;67251;50.844;7.978;2024-03-17T09:33:19;6.13;;;2.20;;
77876;SDS011;67251;50.844;7.978;2024-03-17T09:35:52;4.97;;;2.10;;
77876;SDS011;67251;50.844;7.978;2024-03-17T09:38:28;6.25;;;2.30;;
77876;SDS011;67251;50.844;7.978;2024-03-17T09:40:54;5.80;;;2.10;;
77876;SDS011;67251;50.844;7.978;2024-03-17T09:43:23;4.88;;;2.03;;
77876;SDS011;67251;50.844;7.978;2024-03-17T09:45:49;6.15;;;1.98;;
77876;SDS011;67251;50.844;7.978;2024-03-17T09:48:20;4.40;;;2.15;;
77876;SDS011;67251;50.844;7.978;2024-03-17T09:50:52;4.57;;;2.00;;
77876;SDS011;67251;50.844;7.978;2024-03-17T09:53:22;6.53;;;2.22;;
77876;SDS011;67251;50.844;7.978;2024-03-17T09:56:05;5.85;;;2.42;;
77876;SDS011;67251;50.844;7.978;2024-03-17T09:58:34;5.57;;;2.33;;
77876;SDS011;67251;50.844;7.978;2024-03-17T10:01:00;4.78;;;2.22;;
77876;SDS011;67251;50.844;7.978;2024-03-17T10:06:11;6.95;;;2.78;;
77876;SDS011;67251;50.844;7.978;2024-03-17T10:08:44;6.63;;;2.42;;
77876;SDS011;67251;50.844;7.978;2024-03-17T10:11:13;6.68;;;2.53;;
77876;SDS011;67251;50.844;7.978;2024-03-17T10:13:41;6.28;;;2.22;;
77876;SDS011;67251;50.844;7.978;2024-03-17T10:19:14;6.15;;;2.40;;
77876;SDS011;67251;50.844;7.978;2024-03-17T10:21:42;5.70;;;2.20;;
77876;SDS011;67251;50.844;7.978;2024-03-17T10:24:12;5.50;;;2.40;;
77876;SDS011;67251;50.844;7.978;2024-03-17T10:26:47;5.07;;;2.15;;
77876;SDS011;67251;50.844;7.978;2024-03-17T10:29:20;6.85;;;2.17;;
77876;SDS011;67251;50.844;7.978;2024-03-17T10:31:57;7.43;;;3.65;;
77876;SDS011;67251;50.844;7.978;2024-03-17T10:34:25;5.65;;;2.53;;
77876;SDS011;67251;50.844;7.978;2024-03-17T10:39:51;6.65;;;2.67;;
77876;SDS011;67251;50.844;7.978;2024-03-17T10:42:29;7.47;;;2.78;;
77876;SDS011;67251;50.844;7.978;2024-03-17T10:44:56;5.40;;;2.60;;
77876;SDS011;67251;50.844;7.978;2024-03-17T10:47:23;5.78;;;2.72;;
77876;SDS011;67251;50.844;7.978;2024-03-17T10:49:50;7.13;;;2.20;;
77876;SDS011;67251;50.844;7.978;2024-03-17T10:52:17;6.82;;;2.90;;
77876;SDS011;67251;50.844;7.978;2024-03-17T10:54:46;6.32;;;2.60;;
77876;SDS011;67251;50.844;7.978;2024-03-17T10:59:50;7.10;;;2.55;;
77876;SDS011;67251;50.844;7.978;2024-03-17T11:02:24;5.65;;;2.40;;
77876;SDS011;67251;50.844;7.978;2024-03-17T11:04:56;5.78;;;2.30;;
77876;SDS011;67251;50.844;7.978;2024-03-17T11:07:23;5.05;;;2.38;;
77876;SDS011;67251;50.844;7.978;2024-03-17T11:09:52;5.45;;;2.10;;
77876;SDS011;67251;50.844;7.978;2024-03-17T11:17:55;5.80;;;2.20;;
77876;SDS011;67251;50.844;7.978;2024-03-17T11:20:55;5.35;;;2.25;;
77876;SDS011;67251;50.844;7.978;2024-03-17T11:23:30;5.57;;;2.22;;
77876;SDS011;67251;50.844;7.978;2024-03-17T11:25:56;6.60;;;2.42;;
77876;SDS011;67251;50.844;7.978;2024-03-17T11:31:06;5.60;;;2.40;;
77876;SDS011;67251;50.844;7.978;2024-03-17T11:33:57;7.18;;;2.60;;
77876;SDS011;67251;50.844;7.978;2024-03-17T11:41:41;6.03;;;2.10;;
77876;SDS011;67251;50.844;7.978;2024-03-17T11:54:38;4.88;;;2.47;;
77876;SDS011;67251;50.844;7.978;2024-03-17T11:57:09;5.05;;;2.17;;
77876;SDS011;67251;50.844;7.978;2024-03-17T11:59:36;6.05;;;2.33;;
77876;SDS011;67251;50.844;7.978;2024-03-17T12:02:02;6.18;;;2.40;;
77876;SDS011;67251;50.844;7.978;2024-03-17T12:04:38;7.80;;;2.85;;
77876;SDS011;67251;50.844;7.978;2024-03-17T12:07:04;6.47;;;2.58;;
77876;SDS011;67251;50.844;7.978;2024-03-17T12:09:40;6.50;;;2.50;;
77876;SDS011;67251;50.844;7.978;2024-03-17T12:12:11;5.05;;;1.70;;
77876;SDS011;67251;50.844;7.978;2024-03-17T12:14:41;5.40;;;2.10;;
77876;SDS011;67251;50.844;7.978;2024-03-17T12:17:10;7.07;;;2.17;;
77876;SDS011;67251;50.844;7.978;2024-03-17T12:19:37;4.50;;;2.15;;
77876;SDS011;67251;50.844;7.978;2024-03-17T12:22:07;6.18;;;2.22;;
77876;SDS011;67251;50.844;7.978;2024-03-17T12:24:33;5.38;;;2.10;;
77876;SDS011;67251;50.844;7.978;2024-03-17T12:27:01;5.03;;;2.00;;
77876;SDS011;67251;50.844;7.978;2024-03-17T12:29:36;5.15;;;2.45;;
77876;SDS011;67251;50.844;7.978;2024-03-17T12:32:06;6.20;;;2.30;;
77876;SDS011;67251;50.844;7.978;2024-03-17T12:34:38;4.65;;;2.40;;
77876;SDS011;67251;50.844;7.978;2024-03-17T12:37:04;6.15;;;2.60;;
77876;SDS011;67251;50.844;7.978;2024-03-17T12:39:30;6.53;;;2.33;;
77876;SDS011;67251;50.844;7.978;2024-03-17T12:42:16;6.90;;;2.17;;
77876;SDS011;67251;50.844;7.978;2024-03-17T12:44:48;5.72;;;2.30;;
77876;SDS011;67251;50.844;7.978;2024-03-17T12:47:17;4.43;;;2.13;;
77876;SDS011;67251;50.844;7.978;2024-03-17T12:49:56;4.82;;;1.95;;
77876;SDS011;67251;50.844;7.978;2024-03-17T12:55:01;5.95;;;2.15;;
77876;SDS011;67251;50.844;7.978;2024-03-17T12:57:50;7.97;;;2.20;;
77876;SDS011;67251;50.844;7.978;2024-03-17T13:00:34;5.57;;;2.58;;
77876;SDS011;67251;50.844;7.978;2024-03-17T13:03:04;5.80;;;1.80;;
77876;SDS011;67251;50.844;7.978;2024-03-17T13:05:31;5.88;;;2.20;;
77876;SDS011;67251;50.844;7.978;2024-03-17T13:07:57;6.13;;;2.33;;
77876;SDS011;67251;50.844;7.978;2024-03-17T13:10:23;5.97;;;2.25;;
77876;SDS011;67251;50.844;7.978;2024-03-17T13:12:57;5.50;;;2.60;;
77876;SDS011;67251;50.844;7.978;2024-03-17T13:15:27;5.60;;;2.50;;
77876;SDS011;67251;50.844;7.978;2024-03-17T13:17:55;4.75;;;2.20;;
77876;SDS011;67251;50.844;7.978;2024-03-17T13:20:21;5.05;;;2.20;;
77876;SDS011;67251;50.844;7.978;2024-03-17T13:22:46;5.00;;;2.17;;
77876;SDS011;67251;50.844;7.978;2024-03-17T13:25:13;5.95;;;2.30;;
77876;SDS011;67251;50.844;7.978;2024-03-17T13:27:41;5.80;;;2.40;;
77876;SDS011;67251;50.844;7.978;2024-03-17T13:30:07;5.18;;;1.92;;
77876;SDS011;67251;50.844;7.978;2024-03-17T13:32:34;4.82;;;1.70;;
77876;SDS011;67251;50.844;7.978;2024-03-17T13:35:00;4.95;;;2.00;;
77876;SDS011;67251;50.844;7.978;2024-03-17T13:37:25;4.45;;;1.63;;
77876;SDS011;67251;50.844;7.978;2024-03-17T13:39:51;6.13;;;1.90;;
77876;SDS011;67251;50.844;7.978;2024-03-17T13:42:16;4.57;;;1.90;;
77876;SDS011;67251;50.844;7.978;2024-03-17T13:44:41;5.25;;;2.30;;
77876;SDS011;67251;50.844;7.978;2024-03-17T13:47:07;7.13;;;1.90;;
77876;SDS011;67251;50.844;7.978;2024-03-17T13:49:33;5.95;;;2.50;;
77876;SDS011;67251;50.844;7.978;2024-03-17T13:51:58;5.57;;;2.10;;
77876;SDS011;67251;50.844;7.978;2024-03-17T13:54:25;6.10;;;2.20;;
77876;SDS011;67251;50.844;7.978;2024-03-17T13:56:50;6.80;;;2.53;;
77876;SDS011;67251;50.844;7.978;2024-03-17T13:59:16;6.05;;;2.20;;
77876;SDS011;67251;50.844;7.978;2024-03-17T14:01:43;5.18;;;2.58;;
77876;SDS011;67251;50.844;7.978;2024-03-17T14:04:15;5.47;;;2.22;;
77876;SDS011;67251;50.844;7.978;2024-03-17T14:06:44;4.20;;;1.90;;
77876;SDS011;67251;50.844;7.978;2024-03-17T14:09:10;6.10;;;2.25;;
77876;SDS011;67251;50.844;7.978;2024-03-17T14:11:37;6.07;;;1.90;;
77876;SDS011;67251;50.844;7.978;2024-03-17T14:14:03;6.85;;;2.20;;
77876;SDS011;67251;50.844;7.978;2024-03-17T14:16:30;4.32;;;1.75;;
77876;SDS011;67251;50.844;7.978;2024-03-17T14:18:58;6.60;;;2.20;;
77876;SDS011;67251;50.844;7.978;2024-03-17T14:21:23;4.97;;;2.20;;
77876;SDS011;67251;50.844;7.978;2024-03-17T14:23:49;4.85;;;2.08;;
77876;SDS011;67251;50.844;7.978;2024-03-17T14:26:14;5.55;;;2.45;;
77876;SDS011;67251;50.844;7.978;2024-03-17T14:28:41;7.88;;;2.35;;
77876;SDS011;67251;50.844;7.978;2024-03-17T14:31:06;8.10;;;2.60;;
77876;SDS011;67251;50.844;7.978;2024-03-17T14:33:31;4.90;;;1.90;;
77876;SDS011;67251;50.844;7.978;2024-03-17T14:35:57;4.70;;;1.90;;
77876;SDS011;67251;50.844;7.978;2024-03-17T14:38:22;4.43;;;1.88;;
77876;SDS011;67251;50.844;7.978;2024-03-17T14:40:50;4.85;;;1.95;;
77876;SDS011;67251;50.844;7.978;2024-03-17T14:43:16;4.35;;;1.90;;
77876;SDS011;67251;50.844;7.978;2024-03-17T14:45:42;5.25;;;1.60;;
77876;SDS011;67251;50.844;7.978;2024-03-17T14:48:07;5.15;;;2.03;;
77876;SDS011;67251;50.844;7.978;2024-03-17T14:50:34;6.07;;;2.00;;
77876;SDS011;67251;50.844;7.978;2024-03-17T14:53:01;5.78;;;2.17;;
77876;SDS011;67251;50.844;7.978;2024-03-17T14:55:26;4.68;;;1.80;;
77876;SDS011;67251;50.844;7.978;2024-03-17T14:57:52;4.85;;;1.75;;
77876;SDS011;67251;50.844;7.978;2024-03-17T15:00:17;5.28;;;2.20;;
77876;SDS011;67251;50.844;7.978;2024-03-17T15:02:44;4.47;;;2.10;;
77876;SDS011;67251;50.844;7.978;2024-03-17T15:05:11;5.68;;;1.83;;
77876;SDS011;67251;50.844;7.978;2024-03-17T15:07:37;4.25;;;1.60;;
77876;SDS011;67251;50.844;7.978;2024-03-17T15:10:04;3.90;;;1.48;;
77876;SDS011;67251;50.844;7.978;2024-03-17T15:12:30;4.03;;;1.60;;
77876;SDS011;67251;50.844;7.978;2024-03-17T15:14:56;6.40;;;1.80;;
77876;SDS011;67251;50.844;7.978;2024-03-17T15:17:21;5.95;;;1.77;;
77876;SDS011;67251;50.844;7.978;2024-03-17T15:19:47;5.50;;;1.52;;
77876;SDS011;67251;50.844;7.978;2024-03-17T15:22:13;3.80;;;1.40;;
77876;SDS011;67251;50.844;7.978;2024-03-17T15:24:38;3.67;;;1.35;;
77876;SDS011;67251;50.844;7.978;2024-03-17T15:27:03;5.75;;;1.98;;
77876;SDS011;67251;50.844;7.978;2024-03-17T15:29:29;9.75;;;4.35;;
77876;SDS011;67251;50.844;7.978;2024-03-17T15:31:54;9.27;;;3.10;;
77876;SDS011;67251;50.844;7.978;2024-03-17T15:34:22;6.50;;;2.90;;
77876;SDS011;67251;50.844;7.978;2024-03-17T15:36:48;4.82;;;2.03;;